Valle Toledo, Valles Caldera, New Mexico Weather observations

Data are for 10 minute period ending at time listed.
 Day   Time   Solar   Ave.   Ave.  Ave.  Vector  Max.   Baro.   Total    
  of    of     Rad.   Air    Rel.  Wind   Wind   Wind  Press.  Precip.   
Year   Day            Temp.  Hum.  Speed  Dir.   Gust                    
2015   (MST)  Kw/m2    F      %     mph   deg.    mph    mb.     in.     
-------------------------------------------------------------------------
  63    0:30   0.00   19.6    84    3.0     6     4.2   721.6    0.00 
  63    0:40   0.00   19.2    86    2.5     2     4.8   721.5    0.00 
  63    0:50   0.00   19.0    86    3.0   348     5.4   721.6    0.00 
  63    1:00   0.00   18.9    86    3.2     5     5.4   721.6    0.00 
  63    1:10   0.00   18.3    83    3.7    29     4.8   721.5    0.00 
  63    1:20   0.00   18.0    82    2.5    22     4.2   721.5    0.00 
  63    1:30   0.00   17.7    82    2.9    30     4.2   721.5    0.00 
  63    1:40   0.00   17.2    81    3.5    34     4.8   721.5    0.00 
  63    1:50   0.00   17.1    81    3.6    22     5.4   721.5    0.00 
  63    2:00   0.00   17.5    81    4.6     5     9.0   721.5    0.00 
  63    2:10   0.00   18.7    79    3.3   359     7.2   721.6    0.00 
  63    2:20   0.00   18.2    77    3.1    25     6.0   721.5    0.00 
  63    2:30   0.00   17.5    76    3.4    27     4.8   721.6    0.00 
  63    2:40   0.00   17.0    78    3.2    26     4.8   721.6    0.00 
  63    2:50   0.00   16.8    79    3.0    23     4.8   721.6    0.00 
  63    3:00   0.00   16.8    79    3.0    39     4.2   721.5    0.00 
  63    3:10   0.00   16.4    79    3.2    39     4.2   721.5    0.00 
  63    3:20   0.00   16.1    80    3.9    38     4.8   721.6    0.00 
  63    3:30   0.00   15.7    80    3.9    32     4.8   721.5    0.00 
  63    3:40   0.00   15.3    81    3.8    35     4.8   721.5    0.00 
  63    3:50   0.00   15.0    82    4.0    35     4.8   721.5    0.00 
  63    4:00   0.00   14.8    82    4.1    34     4.8   721.5    0.00 
  63    4:10   0.00   14.8    82    3.9    38     5.4   721.5    0.00 
  63    4:20   0.00   14.6    83    2.9   350     4.8   721.4    0.00 
  63    4:30   0.00   13.9    84    3.9    32     4.8   721.5    0.00 
  63    4:40   0.00   14.5    85    4.0    38     5.4   721.5    0.00 
  63    4:50   0.00   15.1    85    2.5    16     4.8   721.5    0.00 
  63    5:00   0.00   14.3    83    2.9    27     4.2   721.6    0.00 
  63    5:10   0.00   14.1    84    3.2    40     4.2   721.6    0.00 
  63    5:20   0.00   14.4    85    3.1    35     4.2   721.6    0.00 
  63    5:30   0.00   14.3    85    1.2    19     2.4   721.8    0.00 
  63    5:40   0.00   13.6    85    2.5    38     3.6   721.8    0.00 
  63    5:50   0.00   13.9    86    2.0    57     3.6   721.8    0.00 
  63    6:00   0.00   14.6    86    1.6    71     3.6   721.8    0.00 
  63    6:10   0.00   14.0    84    0.8    47     3.0   721.9    0.00 
  63    6:20   0.00   13.7    86    1.5    44     3.0   722.0    0.00 
  63    6:30   0.00   13.4    86    1.1    39     2.4   722.1    0.00 
  63    6:40   0.01   13.5    86    0.6    47     3.6   722.3    0.00 
  63    6:50   0.01   13.2    86    2.4    33     3.6   722.4    0.00 
  63    7:00   0.01   13.9    86    0.5    43     2.4   722.4    0.00 
  63    7:10   0.02   14.4    84    0.1    61     1.8   722.4    0.00 
  63    7:20   0.03   14.2    84    0.2    61     1.8   722.4    0.00 
  63    7:30   0.06   14.7    83    0.1    64     1.8   722.5    0.00 
  63    7:40   0.06   15.9    80    0.4    86     2.4   722.6    0.00 
  63    7:50   0.04   17.5    78    2.2    51     3.6   722.6    0.00 
  63    8:00   0.06   18.8    74    1.1    14     2.4   722.7    0.00 
  63    8:10   0.04   19.6    72    0.0    30     1.2   722.8    0.00 
  63    8:20   0.06   21.2    72    0.0    28     1.2   722.9    0.00 
  63    8:30   0.31   24.1    67    1.0     2     3.0   723.0    0.00 
  63    8:40   0.38   28.6    57    1.0   310     5.4   723.1    0.00 
  63    8:50   0.44   32.8    47    2.1   306     3.6   723.1    0.00 
  63    9:00   0.47   28.7    52    3.1   272     6.0   723.1    0.00 
  63    9:10   0.46   27.7    54    3.2   249     6.0   723.2    0.00 
  63    9:20   0.30   25.2    59    3.1   238     6.6   723.3    0.00 
  63    9:30   0.41   26.4    55    2.1   185     5.4   723.3    0.00 
  63    9:40   0.64   28.7    49    4.1   173     6.0   723.4    0.00 
  63    9:50   0.62   27.9    51    4.1   172     6.6   723.5    0.00 
  63   10:00   0.67   29.8    48    3.7   210     7.2   723.6    0.00 
  63   10:10   0.69   28.4    51    4.7   238     8.4   723.7    0.00 
  63   10:20   0.64   28.7    53    5.5   250    10.2   723.9    0.00 
  63   10:30   0.76   29.4    52    6.1   259    10.8   723.9    0.00 
  63   10:40   0.92   30.3    50    6.2   247     9.6   723.8    0.00 
  63   10:50   0.64   29.8    51    5.0   230     9.0   723.9    0.00 
  63   11:00   0.36   27.6    54    6.8   256    12.5   723.9    0.00 
  63   11:10   0.58   26.7    64    7.6   269    13.7   724.0    0.00 
  63   11:20   0.96   29.2    57    6.4   240    11.3   723.9    0.00 
  63   11:30   0.66   30.3    49    6.4   260    12.5   723.8    0.00 
  63   11:40   0.85   29.8    52    7.1   263    12.5   723.8    0.00 
  63   11:50   0.97   30.1    46    7.6   239    13.7   723.8    0.00 
  63   12:00   1.11   31.7    43    7.6   254    14.9   723.8    0.00 
  63   12:10   0.92   32.4    45    7.3   263    14.3   723.8    0.00 
  63   12:20   0.79   29.2    55    8.0   251    14.9   723.8    0.00 
  63   12:30   1.12   30.7    48    7.9   248    13.7   723.7    0.00 
  63   12:40   0.59   30.6    47    8.1   281    13.7   723.6    0.00 
  63   12:50   0.47   28.3    50    8.2   263    17.3   723.6    0.00 
  63   13:00   0.86   30.8    41    8.2   254    14.9   723.4    0.00 
  63   13:10   0.59   29.9    45    8.1   258    15.5   723.4    0.00 
  63   13:20   0.52   28.2    55    8.3   259    17.3   723.4    0.00 
  63   13:30   0.60   29.0    51    9.6   269    17.3   723.4    0.00 
  63   13:40   0.51   26.4    61    8.9   261    16.7   723.4    0.00 
  63   13:50   0.69   28.9    55    6.7   261    12.5   723.2    0.00 
  63   14:00   0.69   28.7    56    8.4   262    19.7   723.2    0.00 
  63   14:10   0.82   30.4    48    7.9   249    18.5   723.2    0.00 
  63   14:20   0.90   31.1    43    9.1   266    17.9   723.2    0.00 
  63   14:30   0.74   31.1    41    9.3   258    16.7   723.2    0.00 
  63   14:40   0.53   28.7    46    9.0   253    15.5   723.4    0.00 
  63   14:50   0.55   28.7    45    7.8   251    14.3   723.5    0.00 
  63   15:00   0.67   29.6    42    9.8   257    19.7   723.5    0.00 
  63   15:10   0.58   29.1    41    9.7   255    17.3   723.5    0.00 
  63   15:20   0.61   29.1    42    9.8   253    17.3   723.6    0.00 
  63   15:30   0.56   29.5    42    7.7   260    14.9   723.7    0.00 
  63   15:40   0.51   28.4    43   10.4   263    19.7   723.8    0.00 
  63   15:50   0.47   28.2    43    9.5   260    22.7   723.8    0.00 
  63   16:00   0.44   28.2    44    9.7   261    18.5   723.6    0.00 
  63   16:10   0.40   28.0    42    9.8   269    20.3   723.8    0.00 
  63   16:20   0.37   27.9    40    9.5   272    21.5   723.8    0.00 
  63   16:30   0.33   27.6    41    9.4   268    19.7   723.8    0.00 
  63   16:40   0.30   27.0    42    9.4   263    19.1   723.8    0.00 
  63   16:50   0.27   27.0    44   10.3   271    17.9   724.0    0.00 
  63   17:00   0.24   26.7    43    9.6   272    19.1   724.2    0.00 
  63   17:10   0.20   26.2    44    9.5   266    19.7   724.2    0.00 
  63   17:20   0.16   25.9    45    8.7   269    14.3   724.3    0.00 
  63   17:30   0.12   25.4    45    9.3   268    16.7   724.4    0.00 
  63   17:40   0.07   25.4    45    8.2   272    17.3   724.5    0.00 
  63   17:50   0.03   23.6    45    8.2   272    16.1   724.7    0.00 
  63   18:00   0.01   23.0    46    8.3   288    15.5   724.9    0.00 
  63   18:10   0.01   22.4    49    6.7   283    14.3   725.1    0.00 
  63   18:20   0.00   21.6    52    7.0   278    13.7   725.2    0.00 
  63   18:30   0.00   21.1    54    6.2   271    12.5   725.4    0.00 
  63   18:40   0.00   20.7    55    5.2   297    10.8   725.5    0.00 
  63   18:50   0.00   20.7    55    4.2   298     9.0   725.8    0.00 
  63   19:00   0.00   20.1    56    2.7   315     4.8   726.0    0.00 
  63   19:10   0.00   19.4    58    4.2   339     8.4   726.2    0.00 
  63   19:20   0.00   19.2    58    4.7   335     7.2   726.5    0.00 
  63   19:30   0.00   18.9    59    5.9   334     9.6   726.7    0.00 
  63   19:40   0.00   18.7    60    6.1   331     9.6   726.8    0.00 
  63   19:50   0.00   18.7    61    7.2   330    13.1   727.0    0.00 
  63   20:00   0.00   18.8    62    8.0   330    11.9   727.1    0.00 
  63   20:10   0.00   18.6    62    9.1   324    14.9   727.2    0.00 
  63   20:20   0.00   18.5    63    9.4   326    17.3   727.3    0.00 
  63   20:30   0.00   18.5    64    8.9   326    18.5   727.3    0.00 
  63   20:40   0.00   18.1    64    8.8   325    14.9   727.4    0.00 
  63   20:50   0.00   18.0    64    7.8   332    14.3   727.5    0.00 
  63   21:00   0.00   17.8    64    8.5   333    14.3   727.7    0.00 
  63   21:10   0.00   17.6    63    7.2   335    12.5   727.9    0.00 
  63   21:20   0.00   17.6    63   10.8   318    20.3   728.0    0.00 
  63   21:30   0.00   17.5    62    8.0   333    14.9   728.3    0.00 
  63   21:40   0.00   17.2    62    6.2   324    16.7   728.6    0.00 
  63   21:50   0.00   16.9    63    5.9   312     9.6   728.8    0.00 
  63   22:00   0.00   16.5    64    5.7   306    11.3   728.9    0.00 
  63   22:10   0.00   15.9    65    6.0   310    10.8   729.0    0.00 
  63   22:20   0.00   15.8    66    3.0   298     7.2   729.2    0.00 
  63   22:30   0.00   15.4    67    3.3   222     9.6   729.4    0.00 
  63   22:40   0.00   15.3    67    3.1   307     9.0   729.6    0.00 
  63   22:50   0.00   14.8    68    2.8   306     7.2   729.7    0.00 
  63   23:00   0.00   14.6    70    5.0   327    10.2   729.8    0.00 
  63   23:10   0.00   14.1    70    3.1     7     5.4   729.9    0.00 
  63   23:20   0.00   13.3    72    3.3   330     7.2   729.9    0.00 
  63   23:30   0.00   13.4    72    3.7    10     9.0   729.9    0.00 
  63   23:40   0.00   14.3    69    3.8   319    10.8   729.9    0.00 
  63   23:50   0.00   13.5    70    2.6   174     5.4   730.1    0.00 
  64    0:00   0.00   12.2    72    2.6   145     5.4   730.1    0.00 
  64    0:10   0.00   11.8    74    2.8   122     4.8   730.2    0.00 
  64    0:20   0.00   11.0    74    3.7   103     6.6   730.2    0.00 

Return to Valle Toledo, Valles Caldera graphs page.


Western Regional Climate Center,wrcc@dri.edu